»·PEaware :: N196EC KPSP-KSAN

N196EC :: KPSP-KSAN

FLIGHT INFORMATION

Flight Status: Arrived
Operator: Privately registered:
United States
More flights under this callsign
Pilot: Adrián R. (20842)
Aircraft: CESSNA 172 SKYHAWK
(C172)
More flights by this aircraft type
Origin: KPSP Palm Springs Intl
United States
Destination: KSAN San Diego Intl-Lindbergh
United States
More flights between these airports :: More routes between these airports
Route: +TRM6 TRM V514 MZB
File this flight plan on PilotEdge
Remarks:
Altitude:
(Current/Filed)
10,000ft
Speed:
(Current/Filed)
110kts
Departed: 14-Nov-18 09:48 AM
Arrived: 14-Nov-18 10:45 AM
Distance/Time
Traveled:
74nm/0:56
Distance/Time
To Go:
Arrived

Flight Plot

Page will automatically refresh every two minutes.


Map Options




Map Legend


Flown Route
Filed Route
Departure Airport
Arrival Airport
Navaid (VOR, NDB)
Fix

Horizontal Profiles

Position Reports

Time Latitude Longitude Heading Altitude Ground
Speed
14-Nov-18 09:17 33.822482 -116.496002 233 481ft 0kts
14-Nov-18 09:18 33.822482 -116.496002 233 481ft 0kts
14-Nov-18 09:19 33.822482 -116.496002 233 481ft 0kts
14-Nov-18 09:20 33.822482 -116.496002 233 481ft 0kts
14-Nov-18 09:21 33.822482 -116.496002 233 481ft 0kts
14-Nov-18 09:22 33.822482 -116.496002 233 481ft 0kts
14-Nov-18 09:23 33.822482 -116.496002 233 481ft 0kts
14-Nov-18 09:24 33.822482 -116.496002 232 481ft 0kts
14-Nov-18 09:25 33.822482 -116.496002 232 481ft 0kts
14-Nov-18 09:26 33.822482 -116.496002 232 481ft 0kts
14-Nov-18 09:27 33.822482 -116.496002 232 481ft 0kts
14-Nov-18 09:28 33.822482 -116.496002 232 481ft 0kts
14-Nov-18 09:29 33.822482 -116.496002 232 481ft 0kts
14-Nov-18 09:30 33.822482 -116.496002 232 481ft 0kts
14-Nov-18 09:31 33.822482 -116.496002 232 481ft 0kts
14-Nov-18 09:32 33.822482 -116.496002 232 481ft 0kts
14-Nov-18 09:33 33.822482 -116.496002 232 481ft 0kts
14-Nov-18 09:34 33.822482 -116.496002 232 481ft 0kts
14-Nov-18 09:35 33.822482 -116.496002 232 481ft 0kts
14-Nov-18 09:36 33.822482 -116.496002 232 481ft 0kts
14-Nov-18 09:37 33.822482 -116.496002 232 481ft 0kts
14-Nov-18 09:38 33.822482 -116.496002 232 481ft 0kts
14-Nov-18 09:39 33.822482 -116.496002 232 481ft 0kts
14-Nov-18 09:40 33.822482 -116.496002 232 481ft 0kts
14-Nov-18 09:41 33.822482 -116.496002 232 481ft 0kts
14-Nov-18 09:42 33.822482 -116.496002 232 481ft 0kts
14-Nov-18 09:43 33.822482 -116.496002 232 481ft 0kts
14-Nov-18 09:44 33.822482 -116.496002 232 481ft 0kts
14-Nov-18 09:45 33.822482 -116.496002 232 481ft 0kts
14-Nov-18 09:46 33.820637 -116.495566 158 481ft 12kts
14-Nov-18 09:47 33.819170 -116.497070 232 481ft 0kts
14-Nov-18 09:48 33.819170 -116.497070 232 481ft 0kts
14-Nov-18 09:49 33.819170 -116.497070 232 481ft 0kts
14-Nov-18 09:50 33.818896 -116.497534 235 481ft 9kts
14-Nov-18 09:51 33.830767 -116.508257 326 888ft 80kts
14-Nov-18 09:52 33.846618 -116.508190 98 1682ft 87kts
14-Nov-18 09:53 33.839792 -116.481583 104 2518ft 84kts
14-Nov-18 09:54 33.829036 -116.457078 125 3267ft 85kts
14-Nov-18 09:55 33.813006 -116.435677 133 3979ft 87kts
14-Nov-18 09:56 33.796184 -116.414607 128 4666ft 87kts
14-Nov-18 09:57 33.780742 -116.391570 123 5311ft 89kts
14-Nov-18 09:58 33.765959 -116.367698 123 5922ft 90kts
14-Nov-18 09:59 33.750794 -116.345318 123 6486ft 90kts
14-Nov-18 10:00 33.735695 -116.321537 123 7053ft 91kts
14-Nov-18 10:01 33.719419 -116.297941 125 7599ft 92kts
14-Nov-18 10:02 33.703676 -116.273672 121 8126ft 92kts
14-Nov-18 10:03 33.688881 -116.248698 120 8637ft 92kts
14-Nov-18 10:04 33.672128 -116.224925 124 9129ft 93kts
14-Nov-18 10:05 33.655485 -116.201109 122 9604ft 93kts
14-Nov-18 10:06 33.638758 -116.176055 123 9924ft 103kts
14-Nov-18 10:07 33.613324 -116.172116 225 9989ft 119kts
14-Nov-18 10:08 33.587522 -116.197855 214 10007ft 123kts
14-Nov-18 10:09 33.559699 -116.221423 215 10000ft 122kts
14-Nov-18 10:10 33.532935 -116.244653 215 10109ft 114kts
14-Nov-18 10:11 33.506349 -116.267844 215 10111ft 121kts
14-Nov-18 10:12 33.478988 -116.291765 215 10110ft 122kts
14-Nov-18 10:13 33.451380 -116.315891 215 10111ft 123kts
14-Nov-18 10:14 33.423772 -116.339999 215 10111ft 123kts
14-Nov-18 10:15 33.396153 -116.364097 215 10111ft 123kts
14-Nov-18 10:16 33.368541 -116.388170 215 10111ft 123kts
14-Nov-18 10:17 33.340860 -116.412282 215 10109ft 123kts
14-Nov-18 10:18 33.313144 -116.436406 215 10103ft 124kts
14-Nov-18 10:19 33.285226 -116.460690 214 10093ft 124kts
14-Nov-18 10:20 33.257686 -116.484632 214 10077ft 123kts
14-Nov-18 10:21 33.229563 -116.507488 203 10062ft 122kts
14-Nov-18 10:22 33.197979 -116.531987 211 9499ft 141kts
14-Nov-18 10:23 33.165055 -116.558205 211 8930ft 142kts
14-Nov-18 10:24 33.135690 -116.582105 211 8950ft 121kts
14-Nov-18 10:25 33.108318 -116.603934 205 8949ft 117kts
14-Nov-18 10:26 33.077981 -116.624036 206 8949ft 129kts
14-Nov-18 10:27 33.047630 -116.644144 207 8948ft 120kts
14-Nov-18 10:28 33.019945 -116.662384 206 8946ft 117kts
14-Nov-18 10:29 32.992000 -116.680757 207 8998ft 111kts
14-Nov-18 10:30 32.963466 -116.699434 208 9002ft 122kts
14-Nov-18 10:31 32.933739 -116.718979 208 9000ft 120kts
14-Nov-18 10:32 32.905270 -116.737679 209 8892ft 124kts
14-Nov-18 10:33 32.874506 -116.757904 209 8309ft 133kts
14-Nov-18 10:34 32.842209 -116.780254 219 7702ft 134kts
14-Nov-18 10:35 32.831710 -116.821096 237 7089ft 132kts
14-Nov-18 10:36 32.798016 -116.836568 200 6509ft 129kts
14-Nov-18 10:37 32.764624 -116.850206 198 6007ft 127kts
14-Nov-18 10:38 32.731006 -116.863632 197 5503ft 128kts
14-Nov-18 10:39 32.697410 -116.877023 195 5094ft 126kts
14-Nov-18 10:40 32.680410 -116.913026 260 4593ft 131kts
14-Nov-18 10:41 32.681258 -116.955506 276 4148ft 127kts
14-Nov-18 10:42 32.686014 -116.996163 286 3685ft 122kts
14-Nov-18 10:43 32.694150 -117.034700 291 3159ft 118kts
14-Nov-18 10:44 32.704248 -117.071397 290 2387ft 116kts
14-Nov-18 10:45 32.713403 -117.107578 287 1563ft 113kts
14-Nov-18 10:46 32.722029 -117.142621 287 843ft 105kts
14-Nov-18 10:47 32.728679 -117.169792 288 261ft 59kts
14-Nov-18 10:48 32.732686 -117.185998 287 18ft 33kts
14-Nov-18 10:49 32.733698 -117.185460 106 18ft 15kts
14-Nov-18 10:50 32.732308 -117.179715 104 17ft 18kts
14-Nov-18 10:51 32.732533 -117.176768 50 23ft 8kts
14-Nov-18 10:52 32.732435 -117.176867 197 23ft 0kts

Navigation Log

Ident Type
Flight plan parsing failed, navigation log unavailable